sensor_id;sensor_type;location;lat;lon;timestamp;temperature;humidity
7738;DHT22;29398;45.328;5.558;2023-08-31T00:00:05;16.20;99.90
7738;DHT22;29398;45.328;5.558;2023-08-31T00:01:07;16.20;99.90
7738;DHT22;29398;45.328;5.558;2023-08-31T00:02:10;16.20;99.90
7738;DHT22;29398;45.328;5.558;2023-08-31T00:03:13;16.20;99.90
7738;DHT22;29398;45.328;5.558;2023-08-31T00:04:15;16.30;99.90
7738;DHT22;29398;45.328;5.558;2023-08-31T00:06:18;16.30;99.90
7738;DHT22;29398;45.328;5.558;2023-08-31T00:07:21;16.20;99.90
7738;DHT22;29398;45.328;5.558;2023-08-31T00:08:23;16.20;99.90
7738;DHT22;29398;45.328;5.558;2023-08-31T00:09:24;16.10;99.90
7738;DHT22;29398;45.328;5.558;2023-08-31T00:10:26;16.10;99.90
7738;DHT22;29398;45.328;5.558;2023-08-31T00:11:27;16.20;99.90
7738;DHT22;29398;45.328;5.558;2023-08-31T00:12:30;16.20;99.90
7738;DHT22;29398;45.328;5.558;2023-08-31T00:13:31;16.20;99.90
7738;DHT22;29398;45.328;5.558;2023-08-31T00:14:34;16.20;99.90
7738;DHT22;29398;45.328;5.558;2023-08-31T00:15:35;16.20;99.90
7738;DHT22;29398;45.328;5.558;2023-08-31T00:16:37;16.20;99.90
7738;DHT22;29398;45.328;5.558;2023-08-31T00:17:38;16.20;99.90
7738;DHT22;29398;45.328;5.558;2023-08-31T00:18:42;16.20;99.90
7738;DHT22;29398;45.328;5.558;2023-08-31T00:19:44;16.20;99.90
7738;DHT22;29398;45.328;5.558;2023-08-31T00:20:46;16.20;99.90
7738;DHT22;29398;45.328;5.558;2023-08-31T00:21:48;16.20;99.90
7738;DHT22;29398;45.328;5.558;2023-08-31T00:22:49;16.10;99.90
7738;DHT22;29398;45.328;5.558;2023-08-31T00:23:51;16.20;99.90
7738;DHT22;29398;45.328;5.558;2023-08-31T00:24:52;16.10;99.90
7738;DHT22;29398;45.328;5.558;2023-08-31T00:26:57;16.20;99.90
7738;DHT22;29398;45.328;5.558;2023-08-31T00:27:59;16.20;99.90
7738;DHT22;29398;45.328;5.558;2023-08-31T00:29:05;16.20;99.90
7738;DHT22;29398;45.328;5.558;2023-08-31T00:30:25;16.10;99.90
7738;DHT22;29398;45.328;5.558;2023-08-31T00:31:30;16.10;99.90
7738;DHT22;29398;45.328;5.558;2023-08-31T00:32:31;16.10;99.90
7738;DHT22;29398;45.328;5.558;2023-08-31T00:33:34;16.10;99.90
7738;DHT22;29398;45.328;5.558;2023-08-31T00:34:37;16.10;99.90
7738;DHT22;29398;45.328;5.558;2023-08-31T00:35:39;16.10;99.90
7738;DHT22;29398;45.328;5.558;2023-08-31T00:36:47;16.10;99.90
7738;DHT22;29398;45.328;5.558;2023-08-31T00:37:49;16.10;99.90
7738;DHT22;29398;45.328;5.558;2023-08-31T00:38:51;16.00;99.90
7738;DHT22;29398;45.328;5.558;2023-08-31T00:39:54;16.10;99.90
7738;DHT22;29398;45.328;5.558;2023-08-31T00:40:56;16.00;99.90
7738;DHT22;29398;45.328;5.558;2023-08-31T00:41:57;16.10;99.90
7738;DHT22;29398;45.328;5.558;2023-08-31T00:42:59;16.00;99.90
7738;DHT22;29398;45.328;5.558;2023-08-31T00:44:00;16.00;99.90
7738;DHT22;29398;45.328;5.558;2023-08-31T00:45:06;16.00;99.90
7738;DHT22;29398;45.328;5.558;2023-08-31T00:46:07;16.00;99.90
7738;DHT22;29398;45.328;5.558;2023-08-31T00:47:09;16.00;99.90
7738;DHT22;29398;45.328;5.558;2023-08-31T00:48:11;16.00;99.90
7738;DHT22;29398;45.328;5.558;2023-08-31T00:49:13;16.00;99.90
7738;DHT22;29398;45.328;5.558;2023-08-31T00:50:17;16.00;99.90
7738;DHT22;29398;45.328;5.558;2023-08-31T00:51:20;16.00;99.90
7738;DHT22;29398;45.328;5.558;2023-08-31T00:52:22;16.00;99.90
7738;DHT22;29398;45.328;5.558;2023-08-31T00:53:25;16.00;99.90
7738;DHT22;29398;45.328;5.558;2023-08-31T00:54:28;16.00;99.90
7738;DHT22;29398;45.328;5.558;2023-08-31T00:55:30;15.90;99.90
7738;DHT22;29398;45.328;5.558;2023-08-31T00:56:32;15.90;99.90
7738;DHT22;29398;45.328;5.558;2023-08-31T00:57:34;15.90;99.90
7738;DHT22;29398;45.328;5.558;2023-08-31T00:58:35;15.90;99.90
7738;DHT22;29398;45.328;5.558;2023-08-31T00:59:38;15.90;99.90
7738;DHT22;29398;45.328;5.558;2023-08-31T01:00:45;15.90;99.90
7738;DHT22;29398;45.328;5.558;2023-08-31T01:01:51;15.90;99.90
7738;DHT22;29398;45.328;5.558;2023-08-31T01:03:01;15.90;99.90
7738;DHT22;29398;45.328;5.558;2023-08-31T01:04:16;16.00;99.90
7738;DHT22;29398;45.328;5.558;2023-08-31T01:05:29;15.90;99.90
7738;DHT22;29398;45.328;5.558;2023-08-31T01:06:40;15.80;99.90
7738;DHT22;29398;45.328;5.558;2023-08-31T01:07:49;16.00;99.90
7738;DHT22;29398;45.328;5.558;2023-08-31T01:08:59;16.00;99.90
7738;DHT22;29398;45.328;5.558;2023-08-31T01:10:09;16.00;99.90
7738;DHT22;29398;45.328;5.558;2023-08-31T01:11:22;16.00;99.90
7738;DHT22;29398;45.328;5.558;2023-08-31T01:12:32;16.00;99.90
7738;DHT22;29398;45.328;5.558;2023-08-31T01:13:37;16.00;99.90
7738;DHT22;29398;45.328;5.558;2023-08-31T01:14:42;16.00;99.90
7738;DHT22;29398;45.328;5.558;2023-08-31T01:15:46;16.00;99.90
7738;DHT22;29398;45.328;5.558;2023-08-31T01:16:49;16.00;99.90
7738;DHT22;29398;45.328;5.558;2023-08-31T01:17:54;16.00;99.90
7738;DHT22;29398;45.328;5.558;2023-08-31T01:18:56;16.00;99.90
7738;DHT22;29398;45.328;5.558;2023-08-31T01:20:00;16.00;99.90
7738;DHT22;29398;45.328;5.558;2023-08-31T01:21:11;16.10;99.90
7738;DHT22;29398;45.328;5.558;2023-08-31T01:22:21;16.10;99.90
7738;DHT22;29398;45.328;5.558;2023-08-31T01:23:29;16.00;99.90
7738;DHT22;29398;45.328;5.558;2023-08-31T01:24:34;16.10;99.90
7738;DHT22;29398;45.328;5.558;2023-08-31T01:25:36;16.10;99.90
7738;DHT22;29398;45.328;5.558;2023-08-31T01:26:40;16.10;99.90
7738;DHT22;29398;45.328;5.558;2023-08-31T01:27:42;16.10;99.90
7738;DHT22;29398;45.328;5.558;2023-08-31T01:28:44;16.10;99.90
7738;DHT22;29398;45.328;5.558;2023-08-31T01:30:05;16.20;99.90
7738;DHT22;29398;45.328;5.558;2023-08-31T01:31:09;16.10;99.90
7738;DHT22;29398;45.328;5.558;2023-08-31T01:32:10;16.20;99.90
7738;DHT22;29398;45.328;5.558;2023-08-31T01:33:13;16.20;99.90
7738;DHT22;29398;45.328;5.558;2023-08-31T01:34:15;16.20;99.90
7738;DHT22;29398;45.328;5.558;2023-08-31T01:35:18;16.30;99.90
7738;DHT22;29398;45.328;5.558;2023-08-31T01:36:27;16.30;99.90
7738;DHT22;29398;45.328;5.558;2023-08-31T01:37:37;16.30;99.90
7738;DHT22;29398;45.328;5.558;2023-08-31T01:38:43;16.30;99.90
7738;DHT22;29398;45.328;5.558;2023-08-31T01:39:55;16.30;99.90
7738;DHT22;29398;45.328;5.558;2023-08-31T01:41:00;16.30;99.90
7738;DHT22;29398;45.328;5.558;2023-08-31T01:42:05;16.40;99.90
7738;DHT22;29398;45.328;5.558;2023-08-31T01:43:08;16.30;99.90
7738;DHT22;29398;45.328;5.558;2023-08-31T01:44:13;16.40;99.90
7738;DHT22;29398;45.328;5.558;2023-08-31T01:45:20;16.40;99.90
7738;DHT22;29398;45.328;5.558;2023-08-31T01:46:22;16.40;99.90
7738;DHT22;29398;45.328;5.558;2023-08-31T01:47:24;16.40;99.90
7738;DHT22;29398;45.328;5.558;2023-08-31T01:48:27;16.40;99.90
7738;DHT22;29398;45.328;5.558;2023-08-31T01:49:28;16.50;99.90
7738;DHT22;29398;45.328;5.558;2023-08-31T01:50:49;16.40;99.90
7738;DHT22;29398;45.328;5.558;2023-08-31T01:51:50;16.50;99.90
7738;DHT22;29398;45.328;5.558;2023-08-31T01:52:52;16.50;99.90
7738;DHT22;29398;45.328;5.558;2023-08-31T01:53:54;16.50;99.90
7738;DHT22;29398;45.328;5.558;2023-08-31T01:54:58;16.40;99.90
7738;DHT22;29398;45.328;5.558;2023-08-31T01:55:59;16.40;99.90
7738;DHT22;29398;45.328;5.558;2023-08-31T01:57:01;16.30;99.90
7738;DHT22;29398;45.328;5.558;2023-08-31T01:58:04;16.30;99.90
7738;DHT22;29398;45.328;5.558;2023-08-31T01:59:06;16.20;99.90
7738;DHT22;29398;45.328;5.558;2023-08-31T02:00:08;16.20;99.90
7738;DHT22;29398;45.328;5.558;2023-08-31T02:01:16;16.10;99.90
7738;DHT22;29398;45.328;5.558;2023-08-31T02:02:19;16.10;99.90
7738;DHT22;29398;45.328;5.558;2023-08-31T02:04:22;16.10;99.90
7738;DHT22;29398;45.328;5.558;2023-08-31T02:05:24;16.10;99.90
7738;DHT22;29398;45.328;5.558;2023-08-31T02:06:27;16.10;99.90
7738;DHT22;29398;45.328;5.558;2023-08-31T02:07:29;16.10;99.90
7738;DHT22;29398;45.328;5.558;2023-08-31T02:08:31;16.20;99.90
7738;DHT22;29398;45.328;5.558;2023-08-31T02:09:34;16.10;99.90
7738;DHT22;29398;45.328;5.558;2023-08-31T02:10:55;16.10;99.90
7738;DHT22;29398;45.328;5.558;2023-08-31T02:11:57;16.10;99.90
7738;DHT22;29398;45.328;5.558;2023-08-31T02:13:01;16.20;99.90
7738;DHT22;29398;45.328;5.558;2023-08-31T02:14:03;16.20;99.90
7738;DHT22;29398;45.328;5.558;2023-08-31T02:15:06;16.20;99.90
7738;DHT22;29398;45.328;5.558;2023-08-31T02:17:10;16.30;99.90
7738;DHT22;29398;45.328;5.558;2023-08-31T02:18:31;16.30;99.90
7738;DHT22;29398;45.328;5.558;2023-08-31T02:19:32;16.30;99.90
7738;DHT22;29398;45.328;5.558;2023-08-31T02:20:34;16.30;99.90
7738;DHT22;29398;45.328;5.558;2023-08-31T02:22:37;16.30;99.90
7738;DHT22;29398;45.328;5.558;2023-08-31T02:23:40;16.40;99.90
7738;DHT22;29398;45.328;5.558;2023-08-31T02:24:42;16.40;99.90
7738;DHT22;29398;45.328;5.558;2023-08-31T02:25:43;16.40;99.90
7738;DHT22;29398;45.328;5.558;2023-08-31T02:26:47;16.40;99.90
7738;DHT22;29398;45.328;5.558;2023-08-31T02:27:49;16.40;99.90
7738;DHT22;29398;45.328;5.558;2023-08-31T02:28:50;16.50;99.90
7738;DHT22;29398;45.328;5.558;2023-08-31T02:29:53;16.40;99.90
7738;DHT22;29398;45.328;5.558;2023-08-31T02:30:58;16.40;99.90
7738;DHT22;29398;45.328;5.558;2023-08-31T02:32:19;16.40;99.90
7738;DHT22;29398;45.328;5.558;2023-08-31T02:33:20;16.40;99.90
7738;DHT22;29398;45.328;5.558;2023-08-31T02:34:22;16.40;99.90
7738;DHT22;29398;45.328;5.558;2023-08-31T02:35:23;16.40;99.90
7738;DHT22;29398;45.328;5.558;2023-08-31T02:36:25;16.40;99.90
7738;DHT22;29398;45.328;5.558;2023-08-31T02:37:26;16.40;99.90
7738;DHT22;29398;45.328;5.558;2023-08-31T02:38:29;16.40;99.90
7738;DHT22;29398;45.328;5.558;2023-08-31T02:39:30;16.50;99.90
7738;DHT22;29398;45.328;5.558;2023-08-31T02:40:31;16.40;99.90
7738;DHT22;29398;45.328;5.558;2023-08-31T02:41:33;16.50;99.90
7738;DHT22;29398;45.328;5.558;2023-08-31T02:42:36;16.50;99.90
7738;DHT22;29398;45.328;5.558;2023-08-31T02:43:38;16.50;99.90
7738;DHT22;29398;45.328;5.558;2023-08-31T02:44:40;16.50;99.90
7738;DHT22;29398;45.328;5.558;2023-08-31T02:46:00;16.50;99.90
7738;DHT22;29398;45.328;5.558;2023-08-31T02:47:02;16.50;99.90
7738;DHT22;29398;45.328;5.558;2023-08-31T02:48:06;16.50;99.90
7738;DHT22;29398;45.328;5.558;2023-08-31T02:49:07;16.40;99.90
7738;DHT22;29398;45.328;5.558;2023-08-31T02:50:09;16.50;99.90
7738;DHT22;29398;45.328;5.558;2023-08-31T02:51:10;16.50;99.90
7738;DHT22;29398;45.328;5.558;2023-08-31T02:52:12;16.40;99.90
7738;DHT22;29398;45.328;5.558;2023-08-31T02:53:13;16.50;99.90
7738;DHT22;29398;45.328;5.558;2023-08-31T02:54:16;16.50;99.90
7738;DHT22;29398;45.328;5.558;2023-08-31T02:55:17;16.40;99.90
7738;DHT22;29398;45.328;5.558;2023-08-31T02:56:19;16.40;99.90
7738;DHT22;29398;45.328;5.558;2023-08-31T02:57:21;16.40;99.90
7738;DHT22;29398;45.328;5.558;2023-08-31T02:58:25;16.40;99.90
7738;DHT22;29398;45.328;5.558;2023-08-31T02:59:26;16.40;99.90
7738;DHT22;29398;45.328;5.558;2023-08-31T03:01:31;16.40;99.90
7738;DHT22;29398;45.328;5.558;2023-08-31T03:02:34;16.40;99.90
7738;DHT22;29398;45.328;5.558;2023-08-31T03:03:35;16.40;99.90
7738;DHT22;29398;45.328;5.558;2023-08-31T03:04:40;16.40;99.90
7738;DHT22;29398;45.328;5.558;2023-08-31T03:05:42;16.40;99.90
7738;DHT22;29398;45.328;5.558;2023-08-31T03:06:44;16.40;99.90
7738;DHT22;29398;45.328;5.558;2023-08-31T03:07:46;16.40;99.90
7738;DHT22;29398;45.328;5.558;2023-08-31T03:08:47;16.40;99.90
7738;DHT22;29398;45.328;5.558;2023-08-31T03:09:49;16.40;99.90
7738;DHT22;29398;45.328;5.558;2023-08-31T03:10:51;16.40;99.90
7738;DHT22;29398;45.328;5.558;2023-08-31T03:11:54;16.50;99.90
7738;DHT22;29398;45.328;5.558;2023-08-31T03:12:56;16.50;99.90
7738;DHT22;29398;45.328;5.558;2023-08-31T03:13:59;16.40;99.90
7738;DHT22;29398;45.328;5.558;2023-08-31T03:15:00;16.40;99.90
7738;DHT22;29398;45.328;5.558;2023-08-31T03:16:03;16.50;99.90
7738;DHT22;29398;45.328;5.558;2023-08-31T03:17:04;16.50;99.90
7738;DHT22;29398;45.328;5.558;2023-08-31T03:19:08;16.50;99.90
7738;DHT22;29398;45.328;5.558;2023-08-31T03:20:10;16.50;99.90
7738;DHT22;29398;45.328;5.558;2023-08-31T03:21:12;16.50;99.90
7738;DHT22;29398;45.328;5.558;2023-08-31T03:23:16;16.50;99.90
7738;DHT22;29398;45.328;5.558;2023-08-31T03:24:18;16.50;99.90
7738;DHT22;29398;45.328;5.558;2023-08-31T03:25:19;16.50;99.90
7738;DHT22;29398;45.328;5.558;2023-08-31T03:26:22;16.50;99.90
7738;DHT22;29398;45.328;5.558;2023-08-31T03:27:25;16.50;99.90
7738;DHT22;29398;45.328;5.558;2023-08-31T03:28:27;16.50;99.90
7738;DHT22;29398;45.328;5.558;2023-08-31T03:29:29;16.50;99.90
7738;DHT22;29398;45.328;5.558;2023-08-31T03:30:32;16.40;99.90
7738;DHT22;29398;45.328;5.558;2023-08-31T03:31:34;16.40;99.90
7738;DHT22;29398;45.328;5.558;2023-08-31T03:32:35;16.40;99.90
7738;DHT22;29398;45.328;5.558;2023-08-31T03:33:38;16.40;99.90
7738;DHT22;29398;45.328;5.558;2023-08-31T03:34:39;16.40;99.90
7738;DHT22;29398;45.328;5.558;2023-08-31T03:35:42;16.40;99.90
7738;DHT22;29398;45.328;5.558;2023-08-31T03:37:47;16.40;99.90
7738;DHT22;29398;45.328;5.558;2023-08-31T03:38:48;16.40;99.90
7738;DHT22;29398;45.328;5.558;2023-08-31T03:40:55;16.30;99.90
7738;DHT22;29398;45.328;5.558;2023-08-31T03:41:59;16.30;99.90
7738;DHT22;29398;45.328;5.558;2023-08-31T03:43:00;16.30;99.90
7738;DHT22;29398;45.328;5.558;2023-08-31T03:44:02;16.30;99.90
7738;DHT22;29398;45.328;5.558;2023-08-31T03:45:05;16.30;99.90
7738;DHT22;29398;45.328;5.558;2023-08-31T03:46:07;16.30;99.90
7738;DHT22;29398;45.328;5.558;2023-08-31T03:47:09;16.20;99.90
7738;DHT22;29398;45.328;5.558;2023-08-31T03:48:10;16.20;99.90
7738;DHT22;29398;45.328;5.558;2023-08-31T03:49:12;16.20;99.90
7738;DHT22;29398;45.328;5.558;2023-08-31T03:50:13;16.20;99.90
7738;DHT22;29398;45.328;5.558;2023-08-31T03:51:15;16.20;99.90
7738;DHT22;29398;45.328;5.558;2023-08-31T03:52:18;16.20;99.90
7738;DHT22;29398;45.328;5.558;2023-08-31T03:53:20;16.20;99.90
7738;DHT22;29398;45.328;5.558;2023-08-31T03:55:27;16.20;99.90
7738;DHT22;29398;45.328;5.558;2023-08-31T03:56:28;16.20;99.90
7738;DHT22;29398;45.328;5.558;2023-08-31T03:57:29;16.20;99.90
7738;DHT22;29398;45.328;5.558;2023-08-31T03:58:38;16.20;99.90
7738;DHT22;29398;45.328;5.558;2023-08-31T03:59:39;16.20;99.90
7738;DHT22;29398;45.328;5.558;2023-08-31T04:00:42;16.20;99.90
7738;DHT22;29398;45.328;5.558;2023-08-31T04:01:43;16.20;99.90
7738;DHT22;29398;45.328;5.558;2023-08-31T04:03:52;16.20;99.90
7738;DHT22;29398;45.328;5.558;2023-08-31T04:04:54;16.10;99.90
7738;DHT22;29398;45.328;5.558;2023-08-31T04:05:56;16.20;99.90
7738;DHT22;29398;45.328;5.558;2023-08-31T04:06:58;16.10;99.90
7738;DHT22;29398;45.328;5.558;2023-08-31T04:07:59;16.10;99.90
7738;DHT22;29398;45.328;5.558;2023-08-31T04:09:01;16.20;99.90
7738;DHT22;29398;45.328;5.558;2023-08-31T04:10:02;16.10;99.90
7738;DHT22;29398;45.328;5.558;2023-08-31T04:11:05;16.10;99.90
7738;DHT22;29398;45.328;5.558;2023-08-31T04:12:06;16.10;99.90
7738;DHT22;29398;45.328;5.558;2023-08-31T04:13:09;16.10;99.90
7738;DHT22;29398;45.328;5.558;2023-08-31T04:15:11;16.20;99.90
7738;DHT22;29398;45.328;5.558;2023-08-31T04:16:15;16.20;99.90
7738;DHT22;29398;45.328;5.558;2023-08-31T04:17:17;16.20;99.90
7738;DHT22;29398;45.328;5.558;2023-08-31T04:18:19;16.20;99.90
7738;DHT22;29398;45.328;5.558;2023-08-31T04:19:20;16.20;99.90
7738;DHT22;29398;45.328;5.558;2023-08-31T04:20:22;16.20;99.90
7738;DHT22;29398;45.328;5.558;2023-08-31T04:21:23;16.30;99.90
7738;DHT22;29398;45.328;5.558;2023-08-31T04:22:26;16.20;99.90
7738;DHT22;29398;45.328;5.558;2023-08-31T04:23:27;16.20;99.90
7738;DHT22;29398;45.328;5.558;2023-08-31T04:24:29;16.20;99.90
7738;DHT22;29398;45.328;5.558;2023-08-31T04:25:30;16.20;99.90
7738;DHT22;29398;45.328;5.558;2023-08-31T04:26:33;16.20;99.90
7738;DHT22;29398;45.328;5.558;2023-08-31T04:27:34;16.20;99.90
7738;DHT22;29398;45.328;5.558;2023-08-31T04:29:38;16.10;99.90
7738;DHT22;29398;45.328;5.558;2023-08-31T04:30:40;16.10;99.90
7738;DHT22;29398;45.328;5.558;2023-08-31T04:31:43;16.10;99.90
7738;DHT22;29398;45.328;5.558;2023-08-31T04:32:45;16.10;99.90
7738;DHT22;29398;45.328;5.558;2023-08-31T04:33:47;16.00;99.90
7738;DHT22;29398;45.328;5.558;2023-08-31T04:34:54;16.10;99.90
7738;DHT22;29398;45.328;5.558;2023-08-31T04:35:55;16.00;99.90
7738;DHT22;29398;45.328;5.558;2023-08-31T04:36:57;16.10;99.90
7738;DHT22;29398;45.328;5.558;2023-08-31T04:37:58;15.90;99.90
7738;DHT22;29398;45.328;5.558;2023-08-31T04:39:00;16.00;99.90
7738;DHT22;29398;45.328;5.558;2023-08-31T04:40:01;16.00;99.90
7738;DHT22;29398;45.328;5.558;2023-08-31T04:41:04;16.00;99.90
7738;DHT22;29398;45.328;5.558;2023-08-31T04:42:06;16.00;99.90
7738;DHT22;29398;45.328;5.558;2023-08-31T04:43:08;16.00;99.90
7738;DHT22;29398;45.328;5.558;2023-08-31T04:44:09;16.00;99.90
7738;DHT22;29398;45.328;5.558;2023-08-31T04:45:11;16.00;99.90
7738;DHT22;29398;45.328;5.558;2023-08-31T04:46:12;16.00;99.90
7738;DHT22;29398;45.328;5.558;2023-08-31T04:47:16;16.00;99.90
7738;DHT22;29398;45.328;5.558;2023-08-31T04:48:17;16.00;99.90
7738;DHT22;29398;45.328;5.558;2023-08-31T04:49:19;16.00;99.90
7738;DHT22;29398;45.328;5.558;2023-08-31T04:50:20;16.00;99.90
7738;DHT22;29398;45.328;5.558;2023-08-31T04:51:30;16.00;99.90
7738;DHT22;29398;45.328;5.558;2023-08-31T04:52:31;16.00;99.90
7738;DHT22;29398;45.328;5.558;2023-08-31T04:53:33;16.00;99.90
7738;DHT22;29398;45.328;5.558;2023-08-31T04:54:34;16.00;99.90
7738;DHT22;29398;45.328;5.558;2023-08-31T04:55:36;16.00;99.90
7738;DHT22;29398;45.328;5.558;2023-08-31T04:56:38;16.00;99.90
7738;DHT22;29398;45.328;5.558;2023-08-31T04:57:39;16.00;99.90
7738;DHT22;29398;45.328;5.558;2023-08-31T04:58:41;16.00;99.90
7738;DHT22;29398;45.328;5.558;2023-08-31T04:59:42;16.00;99.90
7738;DHT22;29398;45.328;5.558;2023-08-31T05:00:44;16.00;99.90
7738;DHT22;29398;45.328;5.558;2023-08-31T05:01:45;16.10;99.90
7738;DHT22;29398;45.328;5.558;2023-08-31T05:02:49;16.00;99.90
7738;DHT22;29398;45.328;5.558;2023-08-31T05:03:50;16.10;99.90
7738;DHT22;29398;45.328;5.558;2023-08-31T05:04:52;16.00;99.90
7738;DHT22;29398;45.328;5.558;2023-08-31T05:05:53;16.10;99.90
7738;DHT22;29398;45.328;5.558;2023-08-31T05:06:55;16.00;99.90
7738;DHT22;29398;45.328;5.558;2023-08-31T05:07:56;15.90;99.90
7738;DHT22;29398;45.328;5.558;2023-08-31T05:08:59;16.10;99.90
7738;DHT22;29398;45.328;5.558;2023-08-31T05:10:01;16.10;99.90
7738;DHT22;29398;45.328;5.558;2023-08-31T05:11:03;16.10;99.90
7738;DHT22;29398;45.328;5.558;2023-08-31T05:12:05;16.10;99.90
7738;DHT22;29398;45.328;5.558;2023-08-31T05:13:08;16.20;99.90
7738;DHT22;29398;45.328;5.558;2023-08-31T05:14:09;16.10;99.90
7738;DHT22;29398;45.328;5.558;2023-08-31T05:15:11;16.10;99.90
7738;DHT22;29398;45.328;5.558;2023-08-31T05:16:12;16.10;99.90
7738;DHT22;29398;45.328;5.558;2023-08-31T05:17:14;16.10;99.90
7738;DHT22;29398;45.328;5.558;2023-08-31T05:18:17;16.10;99.90
7738;DHT22;29398;45.328;5.558;2023-08-31T05:19:19;16.10;99.90
7738;DHT22;29398;45.328;5.558;2023-08-31T05:20:20;16.10;99.90
7738;DHT22;29398;45.328;5.558;2023-08-31T05:21:24;16.10;99.90
7738;DHT22;29398;45.328;5.558;2023-08-31T05:22:25;16.10;99.90
7738;DHT22;29398;45.328;5.558;2023-08-31T05:23:27;16.10;99.90
7738;DHT22;29398;45.328;5.558;2023-08-31T05:24:28;16.10;99.90
7738;DHT22;29398;45.328;5.558;2023-08-31T05:25:30;16.10;99.90
7738;DHT22;29398;45.328;5.558;2023-08-31T05:26:31;16.10;99.90
7738;DHT22;29398;45.328;5.558;2023-08-31T05:27:33;16.10;99.90
7738;DHT22;29398;45.328;5.558;2023-08-31T05:28:34;16.10;99.90
7738;DHT22;29398;45.328;5.558;2023-08-31T05:29:36;16.10;99.90
7738;DHT22;29398;45.328;5.558;2023-08-31T05:30:47;16.10;99.90
7738;DHT22;29398;45.328;5.558;2023-08-31T05:31:51;16.10;99.90
7738;DHT22;29398;45.328;5.558;2023-08-31T05:32:53;16.00;99.90
7738;DHT22;29398;45.328;5.558;2023-08-31T05:33:55;16.10;99.90
7738;DHT22;29398;45.328;5.558;2023-08-31T05:34:57;16.00;99.90
7738;DHT22;29398;45.328;5.558;2023-08-31T05:36:01;16.10;99.90
7738;DHT22;29398;45.328;5.558;2023-08-31T05:37:04;16.10;99.90
7738;DHT22;29398;45.328;5.558;2023-08-31T05:38:05;16.10;99.90
7738;DHT22;29398;45.328;5.558;2023-08-31T05:39:08;16.00;99.90
7738;DHT22;29398;45.328;5.558;2023-08-31T05:40:10;16.10;99.90
7738;DHT22;29398;45.328;5.558;2023-08-31T05:42:14;16.00;99.90
7738;DHT22;29398;45.328;5.558;2023-08-31T05:43:16;16.00;99.90
7738;DHT22;29398;45.328;5.558;2023-08-31T05:44:17;16.00;99.90
7738;DHT22;29398;45.328;5.558;2023-08-31T05:45:19;16.00;99.90
7738;DHT22;29398;45.328;5.558;2023-08-31T05:46:21;16.00;99.90
7738;DHT22;29398;45.328;5.558;2023-08-31T05:48:24;16.00;99.90
7738;DHT22;29398;45.328;5.558;2023-08-31T05:49:28;16.10;99.90
7738;DHT22;29398;45.328;5.558;2023-08-31T05:50:30;16.00;99.90
7738;DHT22;29398;45.328;5.558;2023-08-31T05:51:32;16.00;99.90
7738;DHT22;29398;45.328;5.558;2023-08-31T05:52:33;16.10;99.90
7738;DHT22;29398;45.328;5.558;2023-08-31T05:53:35;16.10;99.90
7738;DHT22;29398;45.328;5.558;2023-08-31T05:54:36;16.00;99.90
7738;DHT22;29398;45.328;5.558;2023-08-31T05:55:38;15.90;99.90
7738;DHT22;29398;45.328;5.558;2023-08-31T05:56:39;16.00;99.90
7738;DHT22;29398;45.328;5.558;2023-08-31T05:57:41;16.00;99.90
7738;DHT22;29398;45.328;5.558;2023-08-31T05:58:42;16.00;99.90
7738;DHT22;29398;45.328;5.558;2023-08-31T05:59:44;16.00;99.90
7738;DHT22;29398;45.328;5.558;2023-08-31T06:00:47;16.00;99.90
7738;DHT22;29398;45.328;5.558;2023-08-31T06:01:49;16.00;99.90
7738;DHT22;29398;45.328;5.558;2023-08-31T06:02:50;16.10;99.90
7738;DHT22;29398;45.328;5.558;2023-08-31T06:03:52;16.00;99.90
7738;DHT22;29398;45.328;5.558;2023-08-31T06:04:55;16.00;99.90
7738;DHT22;29398;45.328;5.558;2023-08-31T06:05:57;16.10;99.90
7738;DHT22;29398;45.328;5.558;2023-08-31T06:06:59;16.10;99.90
7738;DHT22;29398;45.328;5.558;2023-08-31T06:08:01;16.10;99.90
7738;DHT22;29398;45.328;5.558;2023-08-31T06:09:04;16.20;99.90
7738;DHT22;29398;45.328;5.558;2023-08-31T06:10:07;16.20;99.90
7738;DHT22;29398;45.328;5.558;2023-08-31T06:11:08;16.20;99.90
7738;DHT22;29398;45.328;5.558;2023-08-31T06:12:10;16.30;99.90
7738;DHT22;29398;45.328;5.558;2023-08-31T06:13:12;16.30;99.90
7738;DHT22;29398;45.328;5.558;2023-08-31T06:14:14;16.30;99.90
7738;DHT22;29398;45.328;5.558;2023-08-31T06:15:15;16.40;99.90
7738;DHT22;29398;45.328;5.558;2023-08-31T06:17:18;16.50;99.90
7738;DHT22;29398;45.328;5.558;2023-08-31T06:18:20;16.50;99.90
7738;DHT22;29398;45.328;5.558;2023-08-31T06:19:21;16.60;99.90
7738;DHT22;29398;45.328;5.558;2023-08-31T06:20:25;16.60;99.90
7738;DHT22;29398;45.328;5.558;2023-08-31T06:21:26;16.60;99.90
7738;DHT22;29398;45.328;5.558;2023-08-31T06:22:28;16.70;99.90
7738;DHT22;29398;45.328;5.558;2023-08-31T06:23:31;16.70;99.90
7738;DHT22;29398;45.328;5.558;2023-08-31T06:24:33;16.70;99.90
7738;DHT22;29398;45.328;5.558;2023-08-31T06:25:35;16.70;99.90
7738;DHT22;29398;45.328;5.558;2023-08-31T06:26:37;16.70;99.90
7738;DHT22;29398;45.328;5.558;2023-08-31T06:27:39;16.70;99.90
7738;DHT22;29398;45.328;5.558;2023-08-31T06:28:41;16.80;99.90
7738;DHT22;29398;45.328;5.558;2023-08-31T06:29:42;16.80;99.90
7738;DHT22;29398;45.328;5.558;2023-08-31T06:31:47;16.90;99.90
7738;DHT22;29398;45.328;5.558;2023-08-31T06:32:49;16.90;99.90
7738;DHT22;29398;45.328;5.558;2023-08-31T06:33:50;16.90;99.90
7738;DHT22;29398;45.328;5.558;2023-08-31T06:34:53;16.90;99.90
7738;DHT22;29398;45.328;5.558;2023-08-31T06:35:55;16.80;99.90
7738;DHT22;29398;45.328;5.558;2023-08-31T06:36:56;16.90;99.90
7738;DHT22;29398;45.328;5.558;2023-08-31T06:37:58;16.90;99.90
7738;DHT22;29398;45.328;5.558;2023-08-31T06:38:59;16.90;99.90
7738;DHT22;29398;45.328;5.558;2023-08-31T06:40:02;16.90;99.90
7738;DHT22;29398;45.328;5.558;2023-08-31T06:41:03;16.90;99.90
7738;DHT22;29398;45.328;5.558;2023-08-31T06:42:05;16.90;99.90
7738;DHT22;29398;45.328;5.558;2023-08-31T06:43:06;16.90;99.90
7738;DHT22;29398;45.328;5.558;2023-08-31T06:44:07;16.90;99.90
7738;DHT22;29398;45.328;5.558;2023-08-31T06:45:10;17.00;99.90
7738;DHT22;29398;45.328;5.558;2023-08-31T06:46:11;16.90;99.90
7738;DHT22;29398;45.328;5.558;2023-08-31T06:47:13;16.90;99.90
7738;DHT22;29398;45.328;5.558;2023-08-31T06:48:17;17.00;99.90
7738;DHT22;29398;45.328;5.558;2023-08-31T06:49:19;17.00;99.90
7738;DHT22;29398;45.328;5.558;2023-08-31T06:50:20;17.00;99.90
7738;DHT22;29398;45.328;5.558;2023-08-31T06:51:24;17.00;99.90
7738;DHT22;29398;45.328;5.558;2023-08-31T06:52:25;17.00;99.90
7738;DHT22;29398;45.328;5.558;2023-08-31T06:53:27;17.00;99.90
7738;DHT22;29398;45.328;5.558;2023-08-31T06:54:28;17.00;99.90
7738;DHT22;29398;45.328;5.558;2023-08-31T06:55:31;17.00;99.90
7738;DHT22;29398;45.328;5.558;2023-08-31T06:56:32;17.10;99.90
7738;DHT22;29398;45.328;5.558;2023-08-31T06:57:35;17.10;99.90
7738;DHT22;29398;45.328;5.558;2023-08-31T06:58:37;17.10;99.90
7738;DHT22;29398;45.328;5.558;2023-08-31T07:00:41;17.20;99.90
7738;DHT22;29398;45.328;5.558;2023-08-31T07:01:43;17.20;99.90
7738;DHT22;29398;45.328;5.558;2023-08-31T07:02:44;17.20;99.90